Time;durP1;ratioP1;P1;durP2;ratioP2;P2;SDS_P1;SDS_P2;PMS_P1;PMS_P2;Temp;Humidity;BMP_temperature;BMP_pressure;BME280_temperature;BME280_humidity;BME280_pressure;Samples;Min_cycle;Max_cycle;Signal;HPM_P1;HPM_P2
2024/02/26 00:00:15;;;;;;;8.38;7.35;;;14.20;70.50;;;;;;4213961;27;20108;-46
2024/02/26 00:02:56;;;;;;;8.43;7.28;;;14.20;70.70;;;;;;4221006;27;20565;-47
2024/02/26 00:05:38;;;;;;;10.35;7.40;;;14.30;71.10;;;;;;4218670;28;20479;-47
2024/02/26 00:08:20;;;;;;;11.30;7.93;;;14.20;71.50;;;;;;4205657;28;20083;-47
2024/02/26 00:11:01;;;;;;;8.20;7.13;;;14.20;71.90;;;;;;4212763;27;20072;-48
2024/02/26 00:13:43;;;;;;;9.30;7.60;;;14.20;71.90;;;;;;4203685;28;20390;-45
2024/02/26 00:16:24;;;;;;;11.95;8.80;;;14.20;72.00;;;;;;4204500;28;20054;-43
2024/02/26 00:19:05;;;;;;;9.65;7.88;;;14.20;71.60;;;;;;4205545;28;20051;-42
2024/02/26 00:21:46;;;;;;;11.13;7.97;;;14.20;71.20;;;;;;4197423;28;20047;-47
2024/02/26 00:24:27;;;;;;;10.18;7.82;;;14.10;70.80;;;;;;4203379;28;20070;-42
2024/02/26 00:27:08;;;;;;;8.80;7.68;;;14.20;70.80;;;;;;4218262;27;20427;-43
2024/02/26 00:29:50;;;;;;;10.23;8.33;;;14.10;70.40;;;;;;4221274;28;20050;-41
2024/02/26 00:32:31;;;;;;;10.02;7.45;;;14.10;70.20;;;;;;4221388;27;20169;-41
2024/02/26 00:35:12;;;;;;;11.07;8.32;;;14.10;70.50;;;;;;4218676;28;20094;-42
2024/02/26 00:37:53;;;;;;;11.55;7.70;;;14.00;70.00;;;;;;4220447;27;20053;-48
2024/02/26 00:40:34;;;;;;;9.30;8.25;;;14.00;70.00;;;;;;4197144;28;20059;-47
2024/02/26 00:43:15;;;;;;;9.68;7.53;;;14.00;70.30;;;;;;4190251;28;20189;-48
2024/02/26 00:45:57;;;;;;;8.43;7.28;;;14.00;70.50;;;;;;4190378;28;20492;-45
2024/02/26 00:48:38;;;;;;;10.05;7.32;;;14.00;70.50;;;;;;4194834;28;20054;-45
2024/02/26 00:51:19;;;;;;;8.50;7.22;;;14.00;70.90;;;;;;4207505;27;20349;-50
2024/02/26 00:54:03;;;;;;;7.70;6.68;;;14.00;70.80;;;;;;4214565;27;20044;-46
2024/02/26 00:56:44;;;;;;;8.07;7.15;;;14.00;71.00;;;;;;4185355;28;20059;-50
2024/02/26 00:59:25;;;;;;;8.85;6.90;;;14.00;70.40;;;;;;4186912;28;20436;-47
2024/02/26 01:02:08;;;;;;;9.13;7.28;;;13.90;70.90;;;;;;4195213;28;20060;-47
2024/02/26 01:04:49;;;;;;;9.68;7.32;;;13.90;71.80;;;;;;4189321;28;20063;-46
2024/02/26 01:07:35;;;;;;;8.60;7.50;;;13.90;71.80;;;;;;4203194;28;20185;-46
2024/02/26 01:10:16;;;;;;;9.05;7.30;;;13.90;71.60;;;;;;4217463;28;20068;-49
2024/02/26 01:12:57;;;;;;;9.38;6.53;;;13.90;71.30;;;;;;4207764;28;20844;-46
2024/02/26 01:15:38;;;;;;;7.45;6.22;;;13.90;70.90;;;;;;4203082;28;20225;-47
2024/02/26 01:18:20;;;;;;;7.25;6.53;;;13.90;71.50;;;;;;4220049;28;20051;-48
2024/02/26 01:21:02;;;;;;;9.70;7.20;;;13.90;72.00;;;;;;4220581;28;20058;-47
2024/02/26 01:23:43;;;;;;;8.02;6.60;;;13.90;72.20;;;;;;4220338;27;20046;-47
2024/02/26 01:26:24;;;;;;;7.50;6.78;;;13.80;71.80;;;;;;4202837;28;20093;-46
2024/02/26 01:29:05;;;;;;;7.30;6.60;;;13.80;71.60;;;;;;4218672;28;20091;-46
2024/02/26 01:31:46;;;;;;;7.57;5.80;;;13.80;71.00;;;;;;4220320;28;20062;-47
2024/02/26 01:34:28;;;;;;;7.35;5.80;;;13.80;70.90;;;;;;4237523;27;20062;-46
2024/02/26 01:37:09;;;;;;;8.60;6.82;;;13.80;70.70;;;;;;4204067;28;20051;-47
2024/02/26 01:39:50;;;;;;;7.78;6.60;;;13.80;71.00;;;;;;4187764;28;20392;-49
2024/02/26 01:42:32;;;;;;;6.35;5.40;;;13.80;70.40;;;;;;4201266;28;20059;-43
2024/02/26 01:45:20;;;;;;;6.88;5.95;;;13.80;69.70;;;;;;4236462;27;20103;-42
2024/02/26 01:48:02;;;;;;;5.90;5.40;;;13.80;70.10;;;;;;4237417;27;20387;-45
2024/02/26 01:50:45;;;;;;;6.28;5.35;;;13.90;71.00;;;;;;4186402;28;20138;-43
2024/02/26 01:53:26;;;;;;;6.45;5.28;;;13.90;71.60;;;;;;4203608;28;20063;-43
2024/02/26 01:56:08;;;;;;;5.60;5.10;;;14.00;71.30;;;;;;4178673;28;20192;-43
2024/02/26 01:58:50;;;;;;;4.70;4.35;;;14.00;69.90;;;;;;4214183;28;20510;-42
2024/02/26 02:01:31;;;;;;;5.10;4.60;;;14.00;68.60;;;;;;4219142;28;20058;-41
2024/02/26 02:04:14;;;;;;;5.45;4.40;;;13.90;69.20;;;;;;4219435;28;20058;-41
2024/02/26 02:06:58;;;;;;;5.22;4.72;;;13.90;69.50;;;;;;4204144;28;20084;-43
2024/02/26 02:09:39;;;;;;;6.72;5.05;;;13.90;69.60;;;;;;4220067;28;20054;-44
2024/02/26 02:12:20;;;;;;;4.18;3.88;;;13.90;71.50;;;;;;4215257;27;20101;-42
2024/02/26 02:15:02;;;;;;;6.07;4.22;;;14.00;71.80;;;;;;4210823;28;20063;-42
2024/02/26 02:17:43;;;;;;;4.63;4.22;;;14.00;70.60;;;;;;4219060;28;20051;-43
2024/02/26 02:20:32;;;;;;;4.80;4.40;;;14.10;70.50;;;;;;4210443;27;20113;-45
2024/02/26 02:23:14;;;;;;;5.35;4.25;;;14.20;70.90;;;;;;4222256;27;20092;-47
2024/02/26 02:25:56;;;;;;;3.60;3.30;;;14.20;71.00;;;;;;4221319;27;20105;-48
2024/02/26 02:28:37;;;;;;;4.32;3.15;;;14.20;71.00;;;;;;4216833;27;20042;-48
2024/02/26 02:31:18;;;;;;;3.58;2.95;;;14.30;71.10;;;;;;4222625;27;20403;-47
2024/02/26 02:34:00;;;;;;;3.30;3.05;;;14.40;70.10;;;;;;4189022;28;20097;-48
2024/02/26 02:36:53;;;;;;;3.30;3.10;;;14.50;69.80;;;;;;4205967;28;20675;-48
2024/02/26 02:39:34;;;;;;;2.95;2.75;;;14.50;69.10;;;;;;4221262;27;20403;-48
2024/02/26 02:42:16;;;;;;;3.42;3.13;;;14.50;69.20;;;;;;4222168;28;20063;-47
2024/02/26 02:44:57;;;;;;;3.42;3.17;;;14.50;69.80;;;;;;4221267;28;20057;-47
2024/02/26 02:47:38;;;;;;;3.60;3.30;;;14.50;70.00;;;;;;4198207;28;20074;-47
2024/02/26 02:50:20;;;;;;;3.60;3.30;;;14.50;70.20;;;;;;4217945;27;20586;-49
2024/02/26 02:53:02;;;;;;;3.40;3.10;;;14.50;70.30;;;;;;4204316;28;20047;-50
2024/02/26 02:55:43;;;;;;;5.00;3.47;;;14.50;69.90;;;;;;4205562;28;20182;-48
2024/02/26 02:58:24;;;;;;;4.05;3.15;;;14.50;70.60;;;;;;4203559;28;20503;-44
2024/02/26 03:01:05;;;;;;;3.92;3.63;;;14.50;70.30;;;;;;4220806;27;20067;-43
2024/02/26 03:03:46;;;;;;;4.22;3.83;;;14.50;70.20;;;;;;4221129;27;20049;-43
2024/02/26 03:06:28;;;;;;;3.40;3.08;;;14.40;70.50;;;;;;4220672;28;20058;-44
2024/02/26 03:09:10;;;;;;;3.20;2.92;;;14.40;71.40;;;;;;4201461;27;20515;-45
2024/02/26 03:11:52;;;;;;;4.32;3.35;;;14.40;71.50;;;;;;4203904;28;20080;-43
2024/02/26 03:14:33;;;;;;;;;;;14.40;71.90;;;;;;4200458;28;20185;-42
2024/02/26 03:17:14;;;;;;;3.70;3.40;;;14.50;71.60;;;;;;4203681;28;20050;-42
2024/02/26 03:19:55;;;;;;;4.13;3.67;;;14.50;71.50;;;;;;4204023;28;20054;-43
2024/02/26 03:22:36;;;;;;;4.25;3.72;;;14.60;71.40;;;;;;4210365;27;20054;-43
2024/02/26 03:25:19;;;;;;;3.83;3.30;;;14.60;70.80;;;;;;4199662;28;20508;-43
2024/02/26 03:28:00;;;;;;;5.60;4.03;;;14.60;70.10;;;;;;4187605;28;20201;-43
2024/02/26 03:30:41;;;;;;;4.25;3.60;;;14.70;70.80;;;;;;4196441;28;20129;-43
2024/02/26 03:33:22;;;;;;;6.05;4.30;;;14.80;70.80;;;;;;4190184;28;20079;-43
2024/02/26 03:36:04;;;;;;;3.35;3.15;;;14.80;70.40;;;;;;4200232;28;20107;-48
2024/02/26 03:38:45;;;;;;;;;;;14.90;69.10;;;;;;4221782;28;20059;-43
2024/02/26 03:41:28;;;;;;;4.15;3.70;;;14.90;69.60;;;;;;4205321;28;20288;-43
2024/02/26 03:44:09;;;;;;;5.30;3.72;;;14.80;70.20;;;;;;4204648;28;20075;-43
2024/02/26 03:46:50;;;;;;;4.05;3.20;;;14.90;70.60;;;;;;4197887;28;20133;-43
2024/02/26 03:49:32;;;;;;;3.83;2.78;;;14.90;70.50;;;;;;4183523;28;20114;-44
2024/02/26 03:52:13;;;;;;;5.45;3.13;;;14.90;69.30;;;;;;4180772;28;20055;-43
2024/02/26 03:54:53;;;;;;;3.17;2.90;;;14.90;70.40;;;;;;4223410;27;20042;-44
2024/02/26 03:57:37;;;;;;;3.40;2.83;;;15.00;71.00;;;;;;4217269;27;20050;-43
2024/02/26 04:00:19;;;;;;;2.60;2.45;;;15.10;70.80;;;;;;4204496;28;20488;-43
2024/02/26 04:03:02;;;;;;;3.47;2.15;;;15.10;70.00;;;;;;4220692;27;20104;-42
2024/02/26 04:05:43;;;;;;;3.10;2.75;;;15.20;70.50;;;;;;4203339;28;20055;-43
2024/02/26 04:08:25;;;;;;;;;;;15.30;69.80;;;;;;4209230;27;20075;-43
2024/02/26 04:11:07;;;;;;;4.20;2.63;;;15.20;69.80;;;;;;4211476;27;20365;-46
2024/02/26 04:13:52;;;;;;;2.70;2.45;;;15.20;69.70;;;;;;4222275;27;20128;-44
2024/02/26 04:16:39;;;;;;;2.40;2.20;;;15.20;70.60;;;;;;4214281;28;20443;-47
2024/02/26 04:19:20;;;;;;;2.70;2.33;;;15.10;70.30;;;;;;4198678;27;20052;-49
2024/02/26 04:22:01;;;;;;;1.65;1.55;;;15.20;70.80;;;;;;4189023;28;20512;-47
2024/02/26 04:24:42;;;;;;;3.05;2.05;;;15.20;70.10;;;;;;4189188;28;20055;-47
2024/02/26 04:27:23;;;;;;;2.47;2.03;;;15.20;69.30;;;;;;4194447;28;20055;-48
2024/02/26 04:30:07;;;;;;;2.60;2.40;;;15.10;68.20;;;;;;4235233;27;20061;-46
2024/02/26 04:32:48;;;;;;;2.40;2.20;;;15.10;68.60;;;;;;4197185;28;20055;-51
2024/02/26 04:35:29;;;;;;;3.67;2.40;;;15.00;69.00;;;;;;4209120;28;20051;-50
2024/02/26 04:38:10;;;;;;;2.30;2.00;;;15.00;70.90;;;;;;4217742;28;20051;-47
2024/02/26 04:40:51;;;;;;;3.22;1.90;;;15.10;70.10;;;;;;4212584;28;20050;-48
2024/02/26 04:43:32;;;;;;;1.90;1.80;;;15.10;69.70;;;;;;4210151;27;20043;-46
2024/02/26 04:46:15;;;;;;;2.08;1.88;;;15.10;68.80;;;;;;4210402;28;20191;-48
2024/02/26 04:48:56;;;;;;;1.80;1.35;;;15.10;68.10;;;;;;4220373;28;20058;-47
2024/02/26 04:51:37;;;;;;;;;;;15.10;67.90;;;;;;4221029;27;20507;-50
2024/02/26 04:54:18;;;;;;;1.80;1.70;;;15.10;68.40;;;;;;4211218;28;19927;-46
2024/02/26 04:56:59;;;;;;;2.50;2.22;;;15.10;68.30;;;;;;4203278;28;20071;-45
2024/02/26 04:59:40;;;;;;;1.65;1.52;;;15.00;68.90;;;;;;4203231;28;20055;-47
2024/02/26 05:02:24;;;;;;;2.28;1.67;;;15.00;68.90;;;;;;4219921;28;20086;-49
2024/02/26 05:05:05;;;;;;;1.60;1.50;;;15.00;67.70;;;;;;4205372;28;20055;-47
2024/02/26 05:07:46;;;;;;;2.03;1.30;;;15.00;68.10;;;;;;4205116;28;20054;-46
2024/02/26 05:10:27;;;;;;;2.40;1.40;;;15.00;67.10;;;;;;4219987;27;20059;-47
2024/02/26 05:13:09;;;;;;;2.00;1.50;;;15.00;67.00;;;;;;4191920;28;20514;-48
2024/02/26 05:15:52;;;;;;;1.92;1.60;;;14.90;66.40;;;;;;4220726;28;20050;-46
2024/02/26 05:18:34;;;;;;;2.13;2.03;;;14.90;67.30;;;;;;4220240;28;20123;-47
2024/02/26 05:21:16;;;;;;;1.73;1.63;;;14.90;68.40;;;;;;4235895;27;20054;-48
2024/02/26 05:23:57;;;;;;;1.40;1.30;;;14.90;67.90;;;;;;4237592;27;20054;-48
2024/02/26 05:26:38;;;;;;;3.05;1.58;;;14.80;66.20;;;;;;4231083;27;20055;-47
2024/02/26 05:29:19;;;;;;;2.58;1.73;;;14.80;67.60;;;;;;4204364;28;20064;-49
2024/02/26 05:32:00;;;;;;;1.67;1.58;;;14.70;68.30;;;;;;4206079;28;20093;-46
2024/02/26 05:34:43;;;;;;;1.60;1.60;;;14.70;69.20;;;;;;4228602;27;20563;-50
2024/02/26 05:37:24;;;;;;;1.27;1.17;;;14.70;69.10;;;;;;4237018;27;20399;-47
2024/02/26 05:40:06;;;;;;;2.20;1.30;;;14.70;69.20;;;;;;4225094;27;20192;-51
2024/02/26 05:42:48;;;;;;;1.58;1.48;;;14.70;68.00;;;;;;4203017;28;20475;-47
2024/02/26 05:45:30;;;;;;;2.13;1.70;;;14.70;68.10;;;;;;4203448;28;20058;-46
2024/02/26 05:48:11;;;;;;;1.60;1.50;;;14.60;68.40;;;;;;4221384;28;20073;-46
2024/02/26 05:50:53;;;;;;;2.22;2.03;;;14.60;68.10;;;;;;4214713;27;20193;-47
2024/02/26 05:53:34;;;;;;;7.30;3.00;;;14.60;68.00;;;;;;4223664;27;20077;-47
2024/02/26 05:56:15;;;;;;;2.55;1.58;;;14.50;68.70;;;;;;4223864;27;20051;-47
2024/02/26 05:58:56;;;;;;;1.70;1.60;;;14.60;68.80;;;;;;4207317;28;20051;-43
2024/02/26 06:01:37;;;;;;;1.63;1.52;;;14.60;69.30;;;;;;4222689;28;20058;-43
2024/02/26 06:04:18;;;;;;;1.55;1.55;;;14.60;69.60;;;;;;4194352;28;20042;-43
2024/02/26 06:07:00;;;;;;;1.60;1.55;;;14.60;70.30;;;;;;4195769;28;20083;-42
2024/02/26 06:09:42;;;;;;;1.67;1.38;;;14.70;70.40;;;;;;4210364;27;20515;-43
2024/02/26 06:12:23;;;;;;;1.52;1.42;;;14.70;70.30;;;;;;4190531;28;20210;-42
2024/02/26 06:15:05;;;;;;;1.98;1.75;;;14.80;69.80;;;;;;4188725;28;20043;-43
2024/02/26 06:17:46;;;;;;;1.58;1.38;;;14.80;68.70;;;;;;4204987;28;20341;-42
2024/02/26 06:20:27;;;;;;;1.83;1.73;;;14.80;68.90;;;;;;4213694;27;20076;-42
2024/02/26 06:23:09;;;;;;;1.60;1.58;;;14.90;68.50;;;;;;4221363;27;20076;-46
2024/02/26 06:25:50;;;;;;;1.33;1.30;;;15.00;68.30;;;;;;4206300;28;20051;-42
2024/02/26 06:28:33;;;;;;;1.58;1.50;;;15.00;66.90;;;;;;4206550;28;20128;-43
2024/02/26 06:31:14;;;;;;;2.08;1.88;;;15.10;66.90;;;;;;4214012;27;20058;-42
2024/02/26 06:33:55;;;;;;;2.00;1.90;;;15.10;66.90;;;;;;4204092;28;20055;-43
2024/02/26 06:36:40;;;;;;;3.72;2.00;;;15.10;67.50;;;;;;4205744;28;20105;-41
2024/02/26 06:39:22;;;;;;;2.00;1.90;;;15.20;67.00;;;;;;4221606;28;20051;-43
2024/02/26 06:42:04;;;;;;;2.30;1.80;;;15.30;67.60;;;;;;4189034;28;20105;-43
2024/02/26 06:44:45;;;;;;;1.60;1.50;;;15.30;67.60;;;;;;4203911;28;20572;-47
2024/02/26 06:47:26;;;;;;;1.80;1.70;;;15.30;67.20;;;;;;4222659;27;20108;-48
2024/02/26 06:50:08;;;;;;;1.55;1.45;;;15.40;65.70;;;;;;4213862;27;20051;-51
2024/02/26 06:52:49;;;;;;;;;;;15.40;65.10;;;;;;4206137;28;20109;-52
2024/02/26 06:55:31;;;;;;;1.73;1.63;;;15.40;65.70;;;;;;4191679;28;19943;-47
2024/02/26 06:58:12;;;;;;;1.60;1.50;;;15.40;67.00;;;;;;4205772;28;20879;-48
2024/02/26 07:00:53;;;;;;;1.67;1.50;;;15.40;66.50;;;;;;4203482;28;20344;-48
2024/02/26 07:03:35;;;;;;;1.52;1.45;;;15.40;66.70;;;;;;4190177;28;20047;-48
2024/02/26 07:06:16;;;;;;;2.47;1.70;;;15.50;64.90;;;;;;4205052;28;20051;-47
2024/02/26 07:08:57;;;;;;;2.10;2.00;;;15.50;65.90;;;;;;4220255;27;20063;-48
2024/02/26 07:11:41;;;;;;;2.38;1.42;;;15.40;66.10;;;;;;4200093;27;20051;-46
2024/02/26 07:14:24;;;;;;;1.60;1.50;;;15.40;66.10;;;;;;4219340;27;20082;-46
2024/02/26 07:17:05;;;;;;;1.65;1.55;;;15.30;66.30;;;;;;4221529;28;20054;-46
2024/02/26 07:19:46;;;;;;;2.28;1.77;;;15.40;67.30;;;;;;4217404;27;20046;-45
2024/02/26 07:22:27;;;;;;;2.40;1.77;;;15.40;66.20;;;;;;4221367;27;20051;-48
2024/02/26 07:25:11;;;;;;;1.50;1.40;;;15.40;66.90;;;;;;4221838;27;20050;-45
2024/02/26 07:27:54;;;;;;;1.50;1.33;;;15.30;65.90;;;;;;4222140;27;20058;-46
2024/02/26 07:30:34;;;;;;;1.98;1.52;;;15.30;65.60;;;;;;4221793;27;20078;-44
2024/02/26 07:33:16;;;;;;;2.45;1.45;;;15.30;65.10;;;;;;4204773;28;20054;-46
2024/02/26 07:35:56;;;;;;;1.42;1.42;;;15.30;64.00;;;;;;4204178;28;20070;-44
2024/02/26 07:38:38;;;;;;;1.83;1.73;;;15.30;63.90;;;;;;4223059;27;20405;-47
2024/02/26 07:41:22;;;;;;;1.65;1.40;;;15.30;63.60;;;;;;4188500;28;20059;-45
2024/02/26 07:44:05;;;;;;;1.65;1.50;;;15.30;63.50;;;;;;4191456;28;20153;-46
2024/02/26 07:46:46;;;;;;;3.10;1.73;;;15.30;63.90;;;;;;4199328;27;20074;-45
2024/02/26 07:49:27;;;;;;;1.52;1.45;;;15.40;63.70;;;;;;4222914;27;20115;-46
2024/02/26 07:52:08;;;;;;;1.33;1.23;;;15.40;64.70;;;;;;4223918;27;20047;-45
2024/02/26 07:54:49;;;;;;;1.63;1.27;;;15.40;63.80;;;;;;4209648;27;20063;-46
2024/02/26 07:57:31;;;;;;;1.30;1.20;;;15.40;63.50;;;;;;4202767;28;20093;-44
2024/02/26 08:00:16;;;;;;;1.35;1.25;;;15.40;63.10;;;;;;4225450;27;20103;-46
2024/02/26 08:02:58;;;;;;;1.20;1.20;;;15.30;62.70;;;;;;4192397;27;20043;-42
2024/02/26 08:05:40;;;;;;;;;;;15.20;62.90;;;;;;4188483;28;20051;-46
2024/02/26 08:08:21;;;;;;;;;;;15.20;63.20;;;;;;4197997;28;19932;-44
2024/02/26 08:11:02;;;;;;;1.88;1.30;;;15.20;63.30;;;;;;4188472;28;20005;-45
2024/02/26 08:13:43;;;;;;;1.95;1.80;;;15.20;63.90;;;;;;4193877;28;20070;-47
2024/02/26 08:16:26;;;;;;;2.97;1.80;;;15.30;63.50;;;;;;4204917;28;20063;-46
2024/02/26 08:19:10;;;;;;;2.47;2.25;;;15.40;62.50;;;;;;4198945;27;20047;-42
2024/02/26 08:21:51;;;;;;;2.40;2.13;;;15.40;62.00;;;;;;4193963;28;20198;-41
2024/02/26 08:24:32;;;;;;;2.42;2.20;;;15.40;61.50;;;;;;4209576;28;20348;-41
2024/02/26 08:27:13;;;;;;;2.80;2.50;;;15.40;60.90;;;;;;4217956;27;20042;-41
2024/02/26 08:29:54;;;;;;;3.65;2.25;;;15.40;60.70;;;;;;4212316;27;20047;-42
2024/02/26 08:32:36;;;;;;;2.33;2.10;;;15.40;60.60;;;;;;4188764;28;20477;-44
2024/02/26 08:35:17;;;;;;;2.45;2.25;;;15.40;60.50;;;;;;4199928;28;20180;-45
2024/02/26 08:37:58;;;;;;;2.45;2.30;;;15.30;60.30;;;;;;4214298;28;20162;-46
2024/02/26 08:40:40;;;;;;;3.33;2.33;;;15.30;60.40;;;;;;4202845;28;20051;-46
2024/02/26 08:43:20;;;;;;;2.70;2.50;;;15.20;59.70;;;;;;4194266;28;20046;-50
2024/02/26 08:46:02;;;;;;;3.00;2.60;;;15.10;59.30;;;;;;4221119;27;20423;-47
2024/02/26 08:48:45;;;;;;;2.85;2.20;;;15.10;59.90;;;;;;4187212;28;20047;-47
2024/02/26 08:51:26;;;;;;;3.83;2.65;;;15.00;60.00;;;;;;4186308;28;20116;-47
2024/02/26 08:54:07;;;;;;;3.90;2.55;;;14.90;61.00;;;;;;4192665;27;20055;-46
2024/02/26 08:56:48;;;;;;;2.50;2.40;;;14.90;60.40;;;;;;4213651;28;20066;-46
2024/02/26 08:59:29;;;;;;;3.10;2.28;;;14.90;60.20;;;;;;4218115;28;20062;-47
2024/02/26 09:02:10;;;;;;;2.30;2.08;;;14.80;60.40;;;;;;4202680;28;20051;-46
2024/02/26 09:04:54;;;;;;;2.33;2.13;;;14.80;60.40;;;;;;4205436;28;20169;-46
2024/02/26 09:07:34;;;;;;;2.45;1.90;;;14.80;60.90;;;;;;4204417;27;20365;-43
2024/02/26 09:10:16;;;;;;;3.17;2.17;;;14.70;60.50;;;;;;4215687;27;20165;-43
2024/02/26 09:12:57;;;;;;;2.17;1.88;;;14.80;60.00;;;;;;4219619;28;20161;-42
2024/02/26 09:15:38;;;;;;;1.73;1.63;;;14.80;60.40;;;;;;4237262;27;20814;-43
2024/02/26 09:18:19;;;;;;;1.70;1.63;;;14.80;60.80;;;;;;4237427;27;20050;-47
2024/02/26 09:21:07;;;;;;;2.03;1.92;;;14.70;60.30;;;;;;4221509;27;20127;-47
2024/02/26 09:23:48;;;;;;;3.75;1.90;;;14.70;60.10;;;;;;4220013;28;20099;-46
2024/02/26 09:26:29;;;;;;;1.88;1.75;;;14.70;60.30;;;;;;4206613;28;20046;-45
2024/02/26 09:29:10;;;;;;;1.73;1.55;;;14.70;60.70;;;;;;4207050;28;20046;-45
2024/02/26 09:31:51;;;;;;;1.83;1.73;;;14.70;59.90;;;;;;4220119;28;20147;-46
2024/02/26 09:34:33;;;;;;;1.42;1.40;;;14.60;59.40;;;;;;4186215;28;20055;-45
2024/02/26 09:37:16;;;;;;;2.17;2.08;;;14.60;60.00;;;;;;4187314;28;20507;-45
2024/02/26 09:40:01;;;;;;;1.75;1.65;;;14.50;60.00;;;;;;4189478;28;20073;-45
2024/02/26 09:42:45;;;;;;;1.67;1.55;;;14.60;60.30;;;;;;4190142;27;20500;-45
2024/02/26 09:45:27;;;;;;;2.42;1.48;;;14.60;60.80;;;;;;4209323;27;20058;-44
2024/02/26 09:48:12;;;;;;;1.60;1.60;;;14.60;60.30;;;;;;4203706;28;20077;-45
2024/02/26 09:50:54;;;;;;;1.58;1.48;;;14.60;60.60;;;;;;4220157;28;20511;-45
2024/02/26 09:53:39;;;;;;;1.63;1.52;;;14.60;60.40;;;;;;4212536;28;20051;-45
2024/02/26 09:56:22;;;;;;;2.38;1.65;;;14.70;60.30;;;;;;4220648;28;20192;-46
2024/02/26 09:59:07;;;;;;;1.90;1.80;;;14.70;61.20;;;;;;4218823;28;20050;-46
2024/02/26 10:01:49;;;;;;;1.70;1.60;;;14.70;61.00;;;;;;4202386;27;20393;-45
2024/02/26 10:04:31;;;;;;;1.45;1.40;;;14.70;59.90;;;;;;4219019;28;20054;-45
2024/02/26 10:07:13;;;;;;;2.88;1.83;;;14.60;59.80;;;;;;4188076;27;20048;-48
2024/02/26 10:09:56;;;;;;;1.90;1.80;;;14.60;60.30;;;;;;4194801;28;20476;-46
2024/02/26 10:12:37;;;;;;;1.70;1.60;;;14.70;60.70;;;;;;4202380;28;20384;-45
2024/02/26 10:15:18;;;;;;;2.15;1.90;;;14.70;60.00;;;;;;4204597;28;20043;-44
2024/02/26 10:17:59;;;;;;;1.90;1.80;;;14.70;60.10;;;;;;4204046;28;20116;-46
2024/02/26 10:20:40;;;;;;;2.10;1.90;;;14.70;59.50;;;;;;4211917;28;20051;-42
2024/02/26 10:23:21;;;;;;;1.80;1.80;;;14.60;58.70;;;;;;4202158;28;20185;-44
2024/02/26 10:26:05;;;;;;;1.52;1.45;;;14.60;59.80;;;;;;4202546;28;20129;-43
2024/02/26 10:28:47;;;;;;;2.05;1.30;;;14.60;60.30;;;;;;4202642;28;20059;-43
2024/02/26 10:31:30;;;;;;;1.38;1.38;;;14.60;59.50;;;;;;4202421;28;20055;-42
2024/02/26 10:34:11;;;;;;;1.80;1.70;;;14.60;59.10;;;;;;4186056;28;20082;-42
2024/02/26 10:36:52;;;;;;;1.55;1.45;;;14.60;59.50;;;;;;4189339;28;20059;-42
2024/02/26 10:39:34;;;;;;;;;;;14.60;60.00;;;;;;4199732;28;20129;-44
2024/02/26 10:42:19;;;;;;;2.03;1.67;;;14.60;60.20;;;;;;4221238;28;20287;-43
2024/02/26 10:45:02;;;;;;;1.60;1.58;;;14.60;60.30;;;;;;4208451;28;20063;-46
2024/02/26 10:47:43;;;;;;;1.90;1.80;;;14.60;60.50;;;;;;4207373;28;20055;-45
2024/02/26 10:50:23;;;;;;;1.90;1.80;;;14.60;60.30;;;;;;4222450;28;20059;-52
2024/02/26 10:53:07;;;;;;;2.10;2.00;;;14.60;60.60;;;;;;4204757;28;20059;-45
2024/02/26 10:55:53;;;;;;;2.00;1.90;;;14.60;60.80;;;;;;4193687;28;20047;-43
2024/02/26 10:58:37;;;;;;;3.30;1.80;;;14.70;60.50;;;;;;4205018;28;20846;-43
2024/02/26 11:01:19;;;;;;;2.15;1.75;;;14.70;60.50;;;;;;4185291;28;20137;-48
2024/02/26 11:04:01;;;;;;;1.73;1.63;;;14.80;61.60;;;;;;4198828;28;20060;-45
2024/02/26 11:06:43;;;;;;;1.63;1.50;;;14.70;60.60;;;;;;4206260;28;20209;-46
2024/02/26 11:09:24;;;;;;;;;;;14.70;60.90;;;;;;4219223;28;20063;-47
2024/02/26 11:12:10;;;;;;;1.27;1.17;;;14.80;59.90;;;;;;4204541;28;19927;-47
2024/02/26 11:14:56;;;;;;;1.33;1.27;;;14.80;59.10;;;;;;4219927;28;20047;-46
2024/02/26 11:17:39;;;;;;;3.30;1.70;;;14.80;58.90;;;;;;4222150;27;20153;-47
2024/02/26 11:20:21;;;;;;;1.80;1.70;;;14.70;58.40;;;;;;4221200;27;20060;-47
2024/02/26 11:23:01;;;;;;;4.13;2.40;;;14.70;59.40;;;;;;4206137;28;20059;-46
2024/02/26 11:25:43;;;;;;;1.63;1.50;;;14.70;60.00;;;;;;4206424;28;20059;-47
2024/02/26 11:28:26;;;;;;;2.50;1.55;;;14.70;61.00;;;;;;4204869;28;20152;-49
2024/02/26 11:31:09;;;;;;;2.08;1.50;;;14.80;60.20;;;;;;4221612;27;20053;-46
2024/02/26 11:33:50;;;;;;;1.80;1.70;;;14.80;60.50;;;;;;4203054;28;20466;-46
2024/02/26 11:36:31;;;;;;;1.75;1.65;;;14.80;60.10;;;;;;4205989;28;20396;-48
2024/02/26 11:39:15;;;;;;;2.83;2.30;;;14.70;59.20;;;;;;4208986;27;20123;-46
2024/02/26 11:41:56;;;;;;;3.28;2.72;;;14.70;60.00;;;;;;4204818;28;20411;-45
2024/02/26 11:44:37;;;;;;;3.10;2.25;;;14.60;61.30;;;;;;4220383;27;20149;-46
2024/02/26 11:47:21;;;;;;;2.67;2.35;;;14.60;59.50;;;;;;4216960;28;20054;-49
2024/02/26 11:50:35;;;;;;;2.10;2.00;;;14.50;59.60;;;;;;4190748;28;20055;-48
2024/02/26 11:53:28;;;;;;;2.42;2.25;;;14.40;59.60;;;;;;4186390;28;20052;-46
2024/02/26 11:56:21;;;;;;;;;;;14.30;60.10;;;;;;4175237;28;20190;-43
2024/02/26 11:59:04;;;;;;;2.75;2.55;;;14.30;59.80;;;;;;4187268;28;19932;-43
2024/02/26 12:01:48;;;;;;;3.58;3.28;;;14.20;61.70;;;;;;4196072;28;20051;-46
2024/02/26 12:04:32;;;;;;;3.30;2.97;;;14.30;60.40;;;;;;4194183;28;20148;-43
2024/02/26 12:07:14;;;;;;;5.03;3.03;;;14.30;60.40;;;;;;4217973;27;20411;-44
2024/02/26 12:10:16;;;;;;;2.95;2.75;;;14.30;60.60;;;;;;4220838;28;20054;-43
2024/02/26 12:13:01;;;;;;;3.40;3.13;;;14.30;60.80;;;;;;4220524;28;20054;-44
2024/02/26 12:15:44;;;;;;;4.38;3.08;;;14.40;60.80;;;;;;4194408;28;20059;-47
2024/02/26 12:18:25;;;;;;;3.58;3.28;;;14.40;60.20;;;;;;4217477;27;20405;-45
2024/02/26 12:21:12;;;;;;;3.80;3.50;;;14.40;60.00;;;;;;4237840;27;20091;-44
2024/02/26 12:23:54;;;;;;;4.68;3.20;;;14.40;61.60;;;;;;4187429;28;20055;-45
2024/02/26 12:26:34;;;;;;;3.33;2.90;;;14.50;62.80;;;;;;4192670;28;20058;-46
2024/02/26 12:29:16;;;;;;;3.83;3.53;;;14.60;63.90;;;;;;4187789;28;20153;-45
2024/02/26 12:31:57;;;;;;;4.40;3.50;;;14.70;62.10;;;;;;4198436;28;20051;-47
2024/02/26 12:34:38;;;;;;;3.85;3.50;;;14.80;61.20;;;;;;4188523;28;20458;-46
2024/02/26 12:37:21;;;;;;;3.78;3.58;;;14.80;61.50;;;;;;4191713;28;20054;-44
2024/02/26 12:40:02;;;;;;;5.75;4.00;;;14.90;61.50;;;;;;4219026;27;20085;-47
2024/02/26 12:42:43;;;;;;;3.55;3.25;;;15.00;62.20;;;;;;4191373;28;20103;-45
2024/02/26 12:45:26;;;;;;;5.03;4.13;;;15.10;62.30;;;;;;4203257;28;20059;-45
2024/02/26 12:48:08;;;;;;;3.85;3.65;;;15.20;62.10;;;;;;4202167;28;20812;-45
2024/02/26 12:50:49;;;;;;;3.92;3.60;;;15.20;60.20;;;;;;4186705;28;20141;-46
2024/02/26 12:53:32;;;;;;;4.80;4.43;;;15.10;58.90;;;;;;4187315;28;20055;-47
2024/02/26 12:56:13;;;;;;;3.75;3.55;;;15.10;58.50;;;;;;4216680;27;20084;-47
2024/02/26 12:58:55;;;;;;;3.95;3.75;;;15.10;58.20;;;;;;4202884;28;20088;-48
2024/02/26 13:01:36;;;;;;;4.30;4.00;;;15.00;57.90;;;;;;4219835;28;20219;-47
2024/02/26 13:04:17;;;;;;;4.75;4.35;;;14.90;58.20;;;;;;4204903;28;20042;-47
2024/02/26 13:07:02;;;;;;;5.18;4.78;;;14.90;58.20;;;;;;4214176;28;20520;-46
2024/02/26 13:09:45;;;;;;;4.10;3.80;;;14.80;58.60;;;;;;4203255;28;20385;-45
2024/02/26 13:12:26;;;;;;;5.05;4.45;;;14.80;59.60;;;;;;4203161;28;20059;-45
2024/02/26 13:15:10;;;;;;;4.65;4.25;;;14.70;59.80;;;;;;4203387;28;20101;-46
2024/02/26 13:17:53;;;;;;;4.95;4.45;;;14.70;59.50;;;;;;4186473;28;20047;-46
2024/02/26 13:20:36;;;;;;;5.03;4.50;;;14.60;60.20;;;;;;4194686;28;20121;-45
2024/02/26 13:23:17;;;;;;;6.05;5.05;;;14.70;61.30;;;;;;4203275;28;20091;-47
2024/02/26 13:25:59;;;;;;;6.93;5.30;;;14.70;61.40;;;;;;4216806;28;20120;-44
2024/02/26 13:28:40;;;;;;;5.85;5.25;;;14.70;60.30;;;;;;4191696;28;20178;-44
2024/02/26 13:31:21;;;;;;;5.05;4.60;;;14.60;60.50;;;;;;4214888;28;20050;-45
2024/02/26 13:34:02;;;;;;;8.00;5.80;;;14.60;60.60;;;;;;4207521;28;20077;-44
2024/02/26 13:36:43;;;;;;;7.05;5.55;;;14.50;60.50;;;;;;4186221;28;20400;-45
2024/02/26 13:39:25;;;;;;;6.15;5.50;;;14.50;60.40;;;;;;4186962;28;20059;-44
2024/02/26 13:42:11;;;;;;;5.60;4.97;;;14.50;59.70;;;;;;4187986;28;20137;-45
2024/02/26 13:44:52;;;;;;;7.38;6.10;;;14.50;60.60;;;;;;4189432;28;20055;-43
2024/02/26 13:47:34;;;;;;;5.38;4.82;;;14.50;60.00;;;;;;4195332;28;20113;-47
2024/02/26 13:50:15;;;;;;;6.63;6.03;;;14.40;62.30;;;;;;4186860;28;20061;-45
2024/02/26 13:52:57;;;;;;;7.25;5.57;;;14.50;62.50;;;;;;4211510;28;20047;-45
2024/02/26 13:55:39;;;;;;;6.03;5.50;;;14.50;61.90;;;;;;4217564;28;20499;-44
2024/02/26 13:58:23;;;;;;;;;;;14.50;60.70;;;;;;4219320;28;20503;-45
2024/02/26 14:01:05;;;;;;;7.07;6.25;;;14.50;61.30;;;;;;4203850;28;19963;-44
2024/02/26 14:03:46;;;;;;;6.60;5.70;;;14.50;61.80;;;;;;4209008;27;20456;-50
2024/02/26 14:06:27;;;;;;;8.65;6.18;;;14.50;61.10;;;;;;4185658;28;20071;-47